Time;durP1;ratioP1;P1;durP2;ratioP2;P2;SDS_P1;SDS_P2;PMS_P1;PMS_P2;Temp;Humidity;BMP_temperature;BMP_pressure;BME280_temperature;BME280_humidity;BME280_pressure;Samples;Min_cycle;Max_cycle;Signal;HPM_P1;HPM_P2
2023/08/03 00:00:24;;;;;;;4.70;3.20;;;17.60;99.90;;;;;;4973869;28;20460;-62
2023/08/03 00:02:52;;;;;;;4.63;3.00;;;17.60;99.90;;;;;;4986427;28;21083;-61
2023/08/03 00:05:19;;;;;;;4.17;3.07;;;17.60;99.90;;;;;;4982067;28;20449;-62
2023/08/03 00:07:47;;;;;;;6.40;3.60;;;17.60;99.90;;;;;;4976612;28;21134;-62
2023/08/03 00:10:13;;;;;;;4.60;3.30;;;17.60;99.90;;;;;;4987856;28;20535;-62
2023/08/03 00:12:40;;;;;;;5.03;2.67;;;17.50;99.90;;;;;;4971560;28;20910;-61
2023/08/03 00:15:08;;;;;;;7.53;2.63;;;17.50;99.90;;;;;;4984265;28;20828;-62
2023/08/03 00:17:35;;;;;;;7.30;3.10;;;17.50;99.90;;;;;;4976103;28;20469;-62
2023/08/03 00:20:05;;;;;;;9.07;4.33;;;17.50;99.90;;;;;;4987575;28;20449;-62
2023/08/03 00:22:32;;;;;;;8.20;2.90;;;17.40;99.90;;;;;;4972237;28;20452;-62
2023/08/03 00:24:59;;;;;;;4.73;2.73;;;17.50;99.90;;;;;;4987520;28;20456;-62
2023/08/03 00:27:26;;;;;;;8.83;2.53;;;17.40;99.90;;;;;;4980262;28;20491;-61
2023/08/03 00:29:53;;;;;;;9.27;2.97;;;17.40;99.90;;;;;;4978554;28;20452;-62
2023/08/03 00:32:19;;;;;;;9.20;2.93;;;17.40;99.90;;;;;;4973699;28;20463;-61
2023/08/03 00:34:46;;;;;;;4.87;3.00;;;17.30;99.90;;;;;;4985642;28;20448;-62
2023/08/03 00:37:15;;;;;;;4.37;2.33;;;17.30;99.90;;;;;;4981823;28;20464;-62
2023/08/03 00:39:42;;;;;;;5.27;2.50;;;17.30;99.90;;;;;;4976869;28;21020;-61
2023/08/03 00:42:08;;;;;;;6.07;2.83;;;17.30;99.90;;;;;;4987344;28;20453;-61
2023/08/03 00:44:35;;;;;;;5.73;3.03;;;17.30;99.90;;;;;;4985063;28;20462;-62
2023/08/03 00:47:02;;;;;;;8.63;3.13;;;17.30;99.90;;;;;;4987127;28;20495;-62
2023/08/03 00:49:29;;;;;;;6.10;2.70;;;17.30;99.90;;;;;;4988234;28;20462;-62
2023/08/03 00:51:56;;;;;;;6.10;2.90;;;17.30;99.90;;;;;;4988198;28;20545;-62
2023/08/03 00:54:25;;;;;;;5.37;3.37;;;17.30;99.90;;;;;;4988385;28;20552;-62
2023/08/03 00:56:52;;;;;;;5.27;3.23;;;17.20;99.90;;;;;;4987593;28;20444;-62
2023/08/03 00:59:19;;;;;;;3.53;3.10;;;17.20;99.90;;;;;;4988017;28;20956;-61
2023/08/03 01:01:46;;;;;;;6.57;2.90;;;17.20;99.90;;;;;;4986320;28;20451;-62
2023/08/03 01:04:12;;;;;;;6.00;2.67;;;17.20;99.90;;;;;;4991163;28;20452;-62
2023/08/03 01:06:39;;;;;;;8.53;3.17;;;17.20;99.90;;;;;;4990687;28;20525;-62
2023/08/03 01:09:06;;;;;;;6.93;2.40;;;17.20;99.90;;;;;;4991497;28;20532;-62
2023/08/03 01:11:35;;;;;;;9.37;2.63;;;17.20;99.90;;;;;;4991394;28;20828;-63
2023/08/03 01:14:03;;;;;;;5.17;3.47;;;17.20;99.90;;;;;;4991495;28;20575;-62
2023/08/03 01:16:30;;;;;;;3.23;2.47;;;17.30;99.90;;;;;;4990685;28;20453;-62
2023/08/03 01:18:57;;;;;;;4.67;2.20;;;17.30;99.90;;;;;;4991429;28;20488;-62
2023/08/03 01:21:24;;;;;;;2.83;2.37;;;17.30;99.90;;;;;;4991436;28;21109;-62
2023/08/03 01:23:53;;;;;;;5.53;2.40;;;17.40;99.90;;;;;;4991382;28;20453;-61
2023/08/03 01:26:20;;;;;;;5.53;2.73;;;17.40;99.90;;;;;;4990293;28;20930;-61
2023/08/03 01:28:47;;;;;;;6.83;2.50;;;17.30;99.90;;;;;;4991003;28;20512;-61
2023/08/03 01:31:15;;;;;;;5.03;2.70;;;17.40;99.90;;;;;;4991102;28;20476;-61
2023/08/03 01:33:42;;;;;;;5.50;3.03;;;17.40;99.90;;;;;;4990891;28;20457;-62
2023/08/03 01:36:09;;;;;;;3.50;2.30;;;17.40;99.90;;;;;;4990330;28;21348;-62
2023/08/03 01:38:36;;;;;;;7.40;2.63;;;17.30;99.90;;;;;;4990778;28;20472;-62
2023/08/03 01:41:05;;;;;;;4.10;1.93;;;17.30;99.90;;;;;;4990767;28;20549;-62
2023/08/03 01:43:32;;;;;;;5.03;2.97;;;17.30;99.90;;;;;;4990827;28;20458;-62
2023/08/03 01:45:58;;;;;;;7.60;2.73;;;17.30;99.90;;;;;;4990139;28;20456;-62
2023/08/03 01:48:25;;;;;;;5.47;2.70;;;17.40;99.90;;;;;;4990462;28;20561;-62
2023/08/03 01:50:52;;;;;;;6.37;2.57;;;17.40;99.90;;;;;;4990943;28;21161;-62
2023/08/03 01:53:19;;;;;;;8.63;2.07;;;17.40;99.90;;;;;;4990648;28;20452;-62
2023/08/03 01:55:46;;;;;;;4.00;3.13;;;17.50;99.90;;;;;;4990390;28;20511;-62
2023/08/03 01:58:15;;;;;;;7.80;2.60;;;17.40;99.90;;;;;;4989804;28;20977;-62
2023/08/03 02:00:42;;;;;;;3.40;1.77;;;17.40;99.90;;;;;;4990656;28;20553;-62
2023/08/03 02:03:09;;;;;;;6.10;1.90;;;17.50;99.90;;;;;;4988668;28;20531;-62
2023/08/03 02:05:36;;;;;;;6.73;2.27;;;17.50;99.90;;;;;;4990153;28;20451;-62
2023/08/03 02:08:03;;;;;;;4.50;2.40;;;17.40;99.90;;;;;;4989372;28;20522;-61
2023/08/03 02:10:29;;;;;;;5.47;2.47;;;17.40;99.90;;;;;;4990516;28;20875;-62
2023/08/03 02:12:56;;;;;;;4.23;2.30;;;17.40;99.90;;;;;;4990358;28;20451;-61
2023/08/03 02:15:25;;;;;;;3.33;2.07;;;17.40;99.90;;;;;;4989267;28;20874;-61
2023/08/03 02:17:52;;;;;;;6.70;2.70;;;17.40;99.90;;;;;;4989460;28;20472;-61
2023/08/03 02:20:19;;;;;;;10.03;2.80;;;17.40;99.90;;;;;;4990602;28;20556;-61
2023/08/03 02:22:45;;;;;;;3.00;2.03;;;17.40;99.90;;;;;;4990287;28;20460;-62
2023/08/03 02:25:12;;;;;;;6.10;2.37;;;17.40;99.90;;;;;;4990214;28;20465;-62
2023/08/03 02:27:40;;;;;;;6.17;2.37;;;17.40;99.90;;;;;;4988984;28;20504;-61
2023/08/03 02:30:09;;;;;;;8.57;2.77;;;17.30;99.90;;;;;;4989833;28;21049;-61
2023/08/03 02:32:38;;;;;;;12.40;3.07;;;17.40;99.90;;;;;;4989671;28;20452;-62
2023/08/03 02:35:06;;;;;;;6.13;2.07;;;17.30;99.90;;;;;;4990029;28;20983;-62
2023/08/03 02:37:33;;;;;;;6.73;1.83;;;17.30;99.90;;;;;;4989130;28;20480;-61
2023/08/03 02:39:59;;;;;;;4.80;1.97;;;17.20;99.90;;;;;;4989630;28;20455;-61
2023/08/03 02:42:26;;;;;;;10.27;2.50;;;17.20;99.90;;;;;;4989588;28;20465;-61
2023/08/03 02:44:53;;;;;;;8.37;2.40;;;17.20;99.90;;;;;;4989578;28;20462;-61
2023/08/03 02:47:20;;;;;;;5.77;2.20;;;17.20;99.90;;;;;;4988634;28;20499;-62
2023/08/03 02:49:48;;;;;;;4.43;1.93;;;17.20;99.90;;;;;;4989905;28;20456;-61
2023/08/03 02:52:15;;;;;;;9.43;2.80;;;17.10;99.90;;;;;;4989760;28;20451;-61
2023/08/03 02:54:41;;;;;;;4.50;1.97;;;17.20;99.90;;;;;;4989641;28;20535;-61
2023/08/03 02:57:08;;;;;;;3.13;2.07;;;17.10;99.90;;;;;;4988561;28;21203;-62
2023/08/03 02:59:35;;;;;;;4.13;2.60;;;17.10;99.90;;;;;;4989311;28;20457;-61
2023/08/03 03:02:02;;;;;;;2.27;1.57;;;17.10;99.90;;;;;;4987596;28;21424;-62
2023/08/03 03:04:29;;;;;;;3.80;1.90;;;17.20;99.90;;;;;;4989288;28;20448;-61
2023/08/03 03:06:57;;;;;;;5.53;2.07;;;17.20;99.90;;;;;;4988252;28;20586;-61
2023/08/03 03:09:24;;;;;;;3.53;1.43;;;17.10;99.90;;;;;;4989293;28;20830;-61
2023/08/03 03:11:52;;;;;;;9.53;2.00;;;17.10;99.90;;;;;;4989078;28;20452;-62
2023/08/03 03:14:19;;;;;;;4.40;2.63;;;17.10;99.90;;;;;;4989423;28;20546;-62
2023/08/03 03:16:46;;;;;;;2.40;1.50;;;17.10;99.90;;;;;;4988564;28;20460;-62
2023/08/03 03:19:12;;;;;;;3.83;1.83;;;17.20;99.90;;;;;;4989177;28;20573;-62
2023/08/03 03:21:40;;;;;;;2.20;1.70;;;17.20;99.90;;;;;;4989166;28;20456;-62
2023/08/03 03:24:08;;;;;;;8.20;3.70;;;17.30;99.90;;;;;;4989080;28;20457;-61
2023/08/03 03:26:35;;;;;;;4.37;3.40;;;17.30;99.90;;;;;;4987833;28;20455;-61
2023/08/03 03:29:02;;;;;;;4.00;2.00;;;17.30;99.90;;;;;;4988882;28;20480;-62
2023/08/03 03:31:28;;;;;;;2.33;1.87;;;17.30;99.90;;;;;;4989076;28;20458;-62
2023/08/03 03:33:55;;;;;;;3.90;1.20;;;17.30;99.90;;;;;;4988779;28;20450;-62
2023/08/03 03:36:22;;;;;;;4.13;2.07;;;17.30;99.90;;;;;;5006227;23;20496;-64
2023/08/03 03:38:49;;;;;;;4.47;1.47;;;17.30;99.90;;;;;;4970114;28;21140;-64
2023/08/03 03:41:17;;;;;;;1.97;1.50;;;17.30;99.90;;;;;;4969939;28;20457;-64
2023/08/03 03:43:44;;;;;;;2.37;1.03;;;17.30;99.90;;;;;;4969985;28;20492;-64
2023/08/03 03:46:10;;;;;;;4.20;1.57;;;17.30;99.90;;;;;;4965373;28;20571;-64
2023/08/03 03:48:37;;;;;;;2.30;0.80;;;17.30;99.90;;;;;;4969666;28;20501;-64
2023/08/03 03:51:04;;;;;;;7.00;1.40;;;17.40;99.90;;;;;;4969887;28;20464;-64
2023/08/03 03:53:31;;;;;;;6.30;1.20;;;17.30;99.90;;;;;;4969533;28;20452;-64
2023/08/03 03:55:58;;;;;;;3.13;2.00;;;17.40;99.90;;;;;;4968681;28;20461;-64
2023/08/03 03:58:26;;;;;;;5.53;2.27;;;17.40;99.90;;;;;;4969527;28;20899;-63
2023/08/03 04:00:53;;;;;;;3.20;1.20;;;17.30;99.90;;;;;;4969419;28;20460;-64
2023/08/03 04:03:20;;;;;;;2.20;1.13;;;17.30;99.90;;;;;;4967635;28;20463;-64
2023/08/03 04:05:46;;;;;;;3.13;1.10;;;17.30;99.90;;;;;;4969292;28;21242;-64
2023/08/03 04:08:13;;;;;;;2.40;1.40;;;17.30;99.90;;;;;;4968802;28;20502;-64
2023/08/03 04:10:40;;;;;;;3.37;1.30;;;17.30;99.90;;;;;;4969332;28;20837;-64
2023/08/03 04:13:07;;;;;;;3.70;1.40;;;17.30;99.90;;;;;;4969414;28;20459;-64
2023/08/03 04:15:35;;;;;;;2.17;1.53;;;17.30;99.90;;;;;;4969225;28;20866;-64
2023/08/03 04:18:02;;;;;;;4.37;1.60;;;17.30;99.90;;;;;;4968489;28;20475;-64
2023/08/03 04:20:28;;;;;;;4.00;1.40;;;17.20;99.90;;;;;;4969176;28;20464;-64
2023/08/03 04:22:55;;;;;;;4.23;1.30;;;17.30;99.90;;;;;;4969524;28;20556;-63
2023/08/03 04:25:22;;;;;;;3.23;1.97;;;17.30;99.90;;;;;;4969099;28;20455;-64
2023/08/03 04:27:49;;;;;;;5.27;1.97;;;17.30;99.90;;;;;;4968389;28;20504;-63
2023/08/03 04:30:16;;;;;;;1.67;1.40;;;17.30;99.90;;;;;;4969219;28;21010;-64
2023/08/03 04:32:44;;;;;;;3.60;1.53;;;17.30;99.90;;;;;;4969208;28;20544;-63
2023/08/03 04:35:11;;;;;;;2.63;0.90;;;17.20;99.90;;;;;;4969315;28;20454;-64
2023/08/03 04:37:38;;;;;;;2.70;2.27;;;17.20;99.90;;;;;;4969119;28;20485;-64
2023/08/03 04:40:06;;;;;;;2.13;1.13;;;17.30;99.90;;;;;;4972933;28;20461;-63
2023/08/03 04:42:32;;;;;;;5.10;1.27;;;17.30;99.90;;;;;;4972836;28;20504;-64
2023/08/03 04:44:59;;;;;;;2.30;1.20;;;17.20;99.90;;;;;;4972746;28;20564;-64
2023/08/03 04:47:26;;;;;;;2.90;1.30;;;17.20;99.90;;;;;;4972047;28;21080;-63
2023/08/03 04:49:55;;;;;;;3.33;1.47;;;17.20;99.90;;;;;;4972850;28;20456;-64
2023/08/03 04:52:21;;;;;;;2.60;2.07;;;17.20;99.90;;;;;;4972776;28;20452;-64
2023/08/03 04:54:48;;;;;;;4.47;1.10;;;17.20;99.90;;;;;;4972641;28;20453;-64
2023/08/03 04:57:15;;;;;;;3.07;1.37;;;17.30;99.90;;;;;;4971567;28;20852;-64
2023/08/03 04:59:42;;;;;;;2.97;1.03;;;17.30;99.90;;;;;;4972426;28;20504;-64
2023/08/03 05:02:09;;;;;;;2.77;1.30;;;17.30;99.90;;;;;;4970915;28;20482;-64
2023/08/03 05:04:36;;;;;;;1.70;0.93;;;17.30;99.90;;;;;;4972775;28;20459;-64
2023/08/03 05:07:05;;;;;;;2.90;1.70;;;17.20;99.90;;;;;;4971395;28;20469;-64
2023/08/03 05:09:32;;;;;;;3.90;1.17;;;17.20;99.90;;;;;;4972193;28;20542;-64
2023/08/03 05:11:59;;;;;;;5.30;1.17;;;17.30;99.90;;;;;;4972340;28;20456;-63
2023/08/03 05:14:25;;;;;;;1.90;1.00;;;17.30;99.90;;;;;;4972397;28;21021;-64
2023/08/03 05:16:52;;;;;;;1.43;1.27;;;17.30;99.90;;;;;;4971520;28;20469;-64
2023/08/03 05:19:19;;;;;;;3.23;0.90;;;17.30;99.90;;;;;;4972291;28;20475;-63
2023/08/03 05:21:46;;;;;;;3.53;1.50;;;17.30;99.90;;;;;;4972012;28;21205;-64
2023/08/03 05:24:14;;;;;;;3.57;0.90;;;17.30;99.90;;;;;;4972162;28;20459;-64
2023/08/03 05:26:41;;;;;;;1.93;0.70;;;17.30;99.90;;;;;;4971328;28;20486;-64
2023/08/03 05:29:10;;;;;;;1.20;0.90;;;17.30;99.90;;;;;;4972247;28;20515;-64
2023/08/03 05:31:36;;;;;;;1.47;0.50;;;17.30;99.90;;;;;;4972174;28;20544;-63
2023/08/03 05:34:03;;;;;;;2.57;1.20;;;17.30;99.90;;;;;;4971900;28;20579;-64
2023/08/03 05:36:30;;;;;;;4.47;1.10;;;17.40;99.90;;;;;;4970962;28;21249;-64
2023/08/03 05:38:57;;;;;;;2.30;0.60;;;17.50;99.90;;;;;;4971749;28;20454;-64
2023/08/03 05:41:27;;;;;;;1.73;0.90;;;17.60;99.90;;;;;;4971872;28;20537;-64
2023/08/03 05:43:54;;;;;;;1.20;0.70;;;17.60;99.90;;;;;;4971452;28;20494;-64
2023/08/03 05:46:21;;;;;;;3.57;1.07;;;17.70;99.90;;;;;;4970908;28;20824;-64
2023/08/03 05:48:49;;;;;;;1.27;1.17;;;17.80;99.90;;;;;;4971415;28;20489;-64
2023/08/03 05:51:24;;;;;;;2.77;0.77;;;17.90;99.90;;;;;;4971575;28;20462;-64
2023/08/03 05:53:51;;;;;;;1.30;1.13;;;17.90;99.90;;;;;;4971792;28;20966;-64
2023/08/03 05:56:20;;;;;;;2.50;1.10;;;18.00;99.90;;;;;;4969635;28;20577;-64
2023/08/03 05:58:48;;;;;;;3.83;0.97;;;18.00;99.90;;;;;;4971264;28;20463;-64
2023/08/03 06:01:19;;;;;;;1.80;0.90;;;18.00;99.90;;;;;;4971346;28;20569;-64
2023/08/03 06:03:46;;;;;;;4.03;1.27;;;18.10;99.90;;;;;;4971199;28;20517;-64
2023/08/03 06:06:18;;;;;;;1.90;1.07;;;18.10;99.90;;;;;;4970152;28;20475;-64
2023/08/03 06:08:48;;;;;;;1.77;1.17;;;18.20;99.90;;;;;;4965317;28;21008;-64
2023/08/03 06:11:17;;;;;;;2.83;0.70;;;18.20;99.90;;;;;;4965542;28;21049;-64
2023/08/03 06:13:45;;;;;;;1.30;1.17;;;18.20;99.90;;;;;;4970861;28;20480;-64
2023/08/03 06:16:14;;;;;;;1.20;1.10;;;18.30;99.90;;;;;;4954493;28;20483;-64
2023/08/03 06:18:47;;;;;;;2.53;1.30;;;18.30;99.90;;;;;;4952001;28;20458;-64
2023/08/03 06:21:15;;;;;;;1.90;0.90;;;18.30;99.90;;;;;;4952491;28;20455;-64
2023/08/03 06:23:45;;;;;;;1.43;1.23;;;18.40;99.90;;;;;;4968431;28;20882;-64
2023/08/03 06:26:13;;;;;;;2.67;1.00;;;18.40;99.90;;;;;;4970137;28;20569;-64
2023/08/03 06:28:40;;;;;;;3.27;1.03;;;18.50;99.90;;;;;;4970647;28;21040;-64
2023/08/03 06:31:23;;;;;;;2.20;1.07;;;18.60;99.90;;;;;;4970733;28;20469;-64
2023/08/03 06:33:50;;;;;;;2.27;1.27;;;18.70;99.90;;;;;;4970782;28;20860;-64
2023/08/03 06:36:19;;;;;;;1.43;1.00;;;18.70;99.90;;;;;;4969817;28;20489;-64
2023/08/03 06:38:46;;;;;;;1.10;0.90;;;18.80;99.90;;;;;;4970541;28;20454;-64
2023/08/03 06:41:13;;;;;;;1.17;0.60;;;18.80;99.90;;;;;;4985762;28;20457;-64
2023/08/03 06:43:40;;;;;;;3.30;1.70;;;18.70;99.90;;;;;;4989353;28;20523;-64
2023/08/03 06:46:07;;;;;;;2.60;1.40;;;18.60;99.90;;;;;;4989210;28;20889;-64
2023/08/03 06:48:35;;;;;;;4.20;2.03;;;18.60;99.90;;;;;;4989411;28;20485;-64
2023/08/03 06:51:03;;;;;;;5.60;1.63;;;18.60;99.90;;;;;;4989916;28;20543;-64
2023/08/03 06:53:30;;;;;;;3.40;1.17;;;18.50;99.90;;;;;;4989845;28;20467;-64
2023/08/03 06:55:57;;;;;;;2.17;1.30;;;18.60;99.90;;;;;;4988997;28;20977;-65
2023/08/03 06:58:23;;;;;;;4.37;1.30;;;18.70;99.90;;;;;;4989699;28;20450;-64
2023/08/03 07:00:51;;;;;;;4.73;2.07;;;18.70;99.90;;;;;;4989005;28;20458;-64
2023/08/03 07:03:18;;;;;;;4.53;1.90;;;18.80;99.90;;;;;;4989519;28;20456;-65
2023/08/03 07:05:46;;;;;;;1.97;0.87;;;18.90;99.90;;;;;;4989433;28;21050;-65
2023/08/03 07:08:13;;;;;;;3.73;1.20;;;19.00;99.90;;;;;;4988788;28;20493;-65
2023/08/03 07:10:41;;;;;;;4.50;1.40;;;19.10;99.90;;;;;;4989366;28;20543;-64
2023/08/03 07:13:08;;;;;;;1.37;1.00;;;19.20;99.90;;;;;;4989614;28;20494;-64
2023/08/03 07:15:36;;;;;;;1.80;1.63;;;19.30;99.90;;;;;;4989650;28;20454;-65
2023/08/03 07:18:04;;;;;;;2.13;1.10;;;19.40;99.90;;;;;;4988726;28;20472;-64
2023/08/03 07:20:31;;;;;;;3.23;1.13;;;19.40;99.90;;;;;;4989757;28;20457;-65
2023/08/03 07:22:59;;;;;;;2.53;1.20;;;19.40;99.90;;;;;;4989547;28;20542;-65
2023/08/03 07:25:26;;;;;;;3.53;1.03;;;19.40;99.90;;;;;;4989251;28;20536;-64
2023/08/03 07:27:53;;;;;;;2.17;1.83;;;19.50;99.90;;;;;;4988373;28;20470;-64
2023/08/03 07:30:21;;;;;;;1.87;1.27;;;19.60;99.90;;;;;;4989316;28;20466;-64
2023/08/03 07:32:48;;;;;;;3.10;1.20;;;19.70;99.90;;;;;;4989173;28;20546;-64
2023/08/03 07:35:14;;;;;;;3.10;1.63;;;19.70;99.90;;;;;;4989484;28;20568;-65
2023/08/03 07:37:41;;;;;;;2.93;2.73;;;19.80;99.90;;;;;;4988217;28;20869;-65
2023/08/03 07:40:10;;;;;;;3.53;1.20;;;19.80;99.90;;;;;;4989195;28;20456;-65
2023/08/03 07:42:37;;;;;;;1.97;0.87;;;19.90;99.90;;;;;;4989178;28;20451;-64
2023/08/03 07:45:05;;;;;;;2.40;2.23;;;20.00;99.90;;;;;;4989118;28;20955;-65
2023/08/03 07:47:32;;;;;;;1.37;0.80;;;20.20;99.90;;;;;;4988419;28;20909;-65
2023/08/03 07:50:03;;;;;;;2.43;1.00;;;20.40;99.90;;;;;;4988748;28;20566;-64
2023/08/03 07:52:30;;;;;;;4.10;1.60;;;20.50;99.90;;;;;;4989134;28;20552;-65
2023/08/03 07:54:57;;;;;;;0.83;0.73;;;20.50;99.90;;;;;;4988802;28;20455;-65
2023/08/03 07:57:25;;;;;;;1.67;1.00;;;20.40;99.90;;;;;;4988090;28;20478;-64
2023/08/03 07:59:52;;;;;;;1.73;1.17;;;20.30;99.90;;;;;;4988700;28;20533;-65
2023/08/03 08:02:19;;;;;;;4.07;1.23;;;20.20;99.90;;;;;;4989036;28;20455;-64
2023/08/03 08:04:50;;;;;;;2.77;1.40;;;20.20;99.90;;;;;;4989105;28;20545;-65
2023/08/03 08:07:17;;;;;;;5.80;1.60;;;20.30;99.90;;;;;;4988449;28;20474;-65
2023/08/03 08:09:43;;;;;;;7.33;1.27;;;20.20;99.90;;;;;;4988888;28;20486;-64
2023/08/03 08:12:10;;;;;;;2.77;1.33;;;20.20;99.90;;;;;;4990631;28;20485;-65
2023/08/03 08:14:38;;;;;;;4.70;1.07;;;20.10;99.90;;;;;;4992936;28;20468;-64
2023/08/03 08:17:05;;;;;;;2.83;0.73;;;20.10;99.90;;;;;;4992073;28;20473;-64
2023/08/03 08:19:32;;;;;;;3.10;1.20;;;20.00;99.90;;;;;;4992774;28;20571;-64
2023/08/03 08:21:59;;;;;;;0.70;0.60;;;20.00;99.90;;;;;;4992664;28;20457;-65
2023/08/03 08:24:26;;;;;;;2.73;1.20;;;19.90;99.90;;;;;;4970820;28;20455;-64
2023/08/03 08:26:53;;;;;;;2.40;0.80;;;19.80;99.90;;;;;;4971626;28;20980;-65
2023/08/03 08:29:22;;;;;;;0.80;0.80;;;19.70;99.90;;;;;;4972492;28;20522;-64
2023/08/03 08:31:50;;;;;;;0.70;0.70;;;19.60;99.90;;;;;;4972658;28;20501;-64
2023/08/03 08:34:17;;;;;;;1.23;0.87;;;19.50;99.90;;;;;;4972675;28;20455;-64
2023/08/03 08:36:44;;;;;;;1.70;0.80;;;19.40;99.90;;;;;;4971297;28;20487;-64
2023/08/03 08:39:11;;;;;;;2.00;0.97;;;19.30;99.90;;;;;;4972509;28;20546;-65
2023/08/03 08:41:41;;;;;;;2.93;1.37;;;19.30;99.90;;;;;;4972414;28;20458;-64
2023/08/03 08:44:13;;;;;;;2.37;1.23;;;19.30;99.90;;;;;;4972564;28;20451;-65
2023/08/03 08:46:42;;;;;;;1.90;1.07;;;19.30;99.90;;;;;;4971642;28;20569;-64
2023/08/03 08:49:11;;;;;;;1.43;0.90;;;19.30;99.90;;;;;;4972085;28;20497;-64
2023/08/03 08:51:38;;;;;;;1.70;0.80;;;19.30;99.90;;;;;;4972255;28;20458;-65
2023/08/03 08:54:05;;;;;;;1.63;0.53;;;19.40;99.90;;;;;;4971857;28;20458;-64
2023/08/03 08:56:32;;;;;;;0.80;0.73;;;19.50;99.90;;;;;;4971452;28;20482;-65
2023/08/03 08:58:59;;;;;;;0.73;0.73;;;19.60;99.90;;;;;;4971945;28;20510;-65
2023/08/03 09:01:26;;;;;;;1.33;0.80;;;19.50;99.90;;;;;;4972054;28;20459;-64
2023/08/03 09:03:54;;;;;;;0.70;0.70;;;19.60;99.90;;;;;;4971580;28;20469;-64
2023/08/03 09:06:23;;;;;;;1.80;0.80;;;19.70;99.90;;;;;;4968157;28;20850;-64
2023/08/03 09:08:52;;;;;;;0.50;0.50;;;19.70;99.90;;;;;;4971415;28;20490;-65
2023/08/03 09:11:18;;;;;;;2.30;0.57;;;19.60;99.90;;;;;;4971598;28;20461;-64
2023/08/03 09:13:49;;;;;;;1.10;0.43;;;19.60;99.90;;;;;;4971864;28;20455;-65
2023/08/03 09:16:27;;;;;;;0.70;0.57;;;19.70;99.90;;;;;;4971034;28;20843;-65
2023/08/03 09:18:54;;;;;;;0.80;0.80;;;19.80;99.90;;;;;;4971235;28;20487;-65
2023/08/03 09:21:22;;;;;;;0.70;0.70;;;19.80;99.90;;;;;;4971778;28;21149;-64
2023/08/03 09:23:49;;;;;;;1.90;0.63;;;19.90;99.90;;;;;;4961797;28;20459;-65
2023/08/03 09:26:22;;;;;;;1.37;0.73;;;20.00;99.90;;;;;;4965592;28;20459;-64
2023/08/03 09:28:49;;;;;;;1.03;0.50;;;19.90;99.90;;;;;;4975752;28;20501;-64
2023/08/03 09:31:23;;;;;;;1.80;0.93;;;19.90;99.90;;;;;;4976828;28;20535;-64
2023/08/03 09:33:56;;;;;;;0.87;0.87;;;19.90;99.90;;;;;;4950955;28;20449;-65
2023/08/03 09:36:24;;;;;;;1.13;0.60;;;19.90;99.90;;;;;;4950059;28;20574;-65
2023/08/03 09:38:51;;;;;;;1.70;0.67;;;19.90;99.90;;;;;;4967754;28;20454;-64
2023/08/03 09:41:33;;;;;;;1.00;0.70;;;19.90;99.90;;;;;;4970856;28;21103;-65
2023/08/03 09:44:01;;;;;;;2.60;0.70;;;19.90;99.90;;;;;;4970519;28;20455;-65
2023/08/03 09:46:29;;;;;;;3.00;0.70;;;19.90;99.90;;;;;;4969875;28;20560;-65
2023/08/03 09:48:56;;;;;;;3.60;1.30;;;20.00;99.90;;;;;;4970146;28;20934;-64
2023/08/03 09:51:28;;;;;;;1.90;0.70;;;20.10;99.90;;;;;;4970986;28;20457;-65
2023/08/03 09:54:00;;;;;;;1.27;1.13;;;20.10;99.90;;;;;;4970663;28;20552;-65
2023/08/03 09:56:31;;;;;;;1.33;1.00;;;20.10;99.90;;;;;;4969724;28;20487;-65
2023/08/03 09:59:03;;;;;;;1.47;0.70;;;20.00;99.90;;;;;;4970398;28;20481;-65
2023/08/03 10:01:33;;;;;;;2.20;0.73;;;19.90;99.90;;;;;;4981218;28;20823;-65
2023/08/03 10:04:05;;;;;;;3.73;0.93;;;19.90;99.90;;;;;;4990167;28;20950;-65
2023/08/03 10:06:38;;;;;;;1.17;0.73;;;20.00;99.90;;;;;;4988932;28;20481;-65
2023/08/03 10:09:07;;;;;;;1.47;0.70;;;20.00;99.90;;;;;;4987994;28;20974;-65
2023/08/03 10:11:46;;;;;;;1.10;1.00;;;20.00;99.90;;;;;;4990029;28;20455;-65
2023/08/03 10:14:16;;;;;;;1.60;1.00;;;20.10;99.90;;;;;;4989588;28;20481;-65
2023/08/03 10:16:44;;;;;;;1.53;1.10;;;20.10;99.90;;;;;;4988880;28;20480;-65
2023/08/03 10:19:12;;;;;;;1.30;1.07;;;20.00;99.90;;;;;;4989384;28;20458;-65
2023/08/03 10:21:40;;;;;;;1.47;0.60;;;20.10;99.90;;;;;;4989734;28;20485;-64
2023/08/03 10:24:09;;;;;;;3.13;0.80;;;20.00;99.90;;;;;;5012339;23;20725;-69
2023/08/03 10:26:36;;;;;;;2.67;0.70;;;19.90;99.90;;;;;;4989400;28;20454;-69
2023/08/03 10:29:04;;;;;;;0.80;0.70;;;19.90;99.90;;;;;;4989231;28;20486;-69
2023/08/03 10:31:31;;;;;;;0.83;0.80;;;19.80;99.90;;;;;;4976111;28;20473;-70
2023/08/03 10:34:24;;;;;;;0.80;0.67;;;19.80;99.90;;;;;;4988685;28;20482;-70
2023/08/03 10:36:55;;;;;;;2.47;0.70;;;19.90;99.90;;;;;;4977812;28;20455;-71
2023/08/03 10:39:49;;;;;;;1.80;0.73;;;19.90;99.90;;;;;;4978116;28;20819;-71
2023/08/03 10:42:20;;;;;;;0.67;0.67;;;19.90;99.90;;;;;;4978625;28;21033;-70
2023/08/03 10:44:47;;;;;;;0.90;0.70;;;19.90;99.90;;;;;;4977906;28;20476;-69
2023/08/03 10:47:23;;;;;;;1.87;0.60;;;20.00;99.90;;;;;;4977401;28;20463;-69
2023/08/03 10:49:52;;;;;;;4.07;1.23;;;20.00;99.90;;;;;;4977436;28;20488;-71
2023/08/03 10:52:22;;;;;;;1.17;0.73;;;20.10;99.90;;;;;;4978169;28;20473;-72
2023/08/03 10:54:49;;;;;;;2.30;0.90;;;20.10;99.90;;;;;;4978213;28;20486;-71
2023/08/03 10:57:26;;;;;;;2.50;0.93;;;20.10;99.90;;;;;;5120896;27;20700;-71
2023/08/03 10:59:54;;;;;;;1.97;1.27;;;20.10;99.90;;;;;;5120570;27;20530;-70
2023/08/03 11:02:25;;;;;;;2.33;1.10;;;20.00;99.90;;;;;;5125664;27;20448;-72
2023/08/03 11:04:52;;;;;;;1.87;1.10;;;20.00;99.90;;;;;;5125824;27;20971;-71
2023/08/03 11:07:22;;;;;;;1.77;1.43;;;19.90;99.90;;;;;;5128066;27;20531;-72
2023/08/03 11:09:51;;;;;;;1.10;1.00;;;19.80;99.90;;;;;;5136687;27;20432;-71
2023/08/03 11:12:19;;;;;;;2.17;1.00;;;19.90;99.90;;;;;;5126913;27;20457;-74
2023/08/03 11:14:49;;;;;;;0.80;0.80;;;19.90;99.90;;;;;;5125050;27;21066;-72
2023/08/03 11:17:16;;;;;;;3.63;1.10;;;19.90;99.90;;;;;;5123330;27;20484;-72
2023/08/03 11:19:44;;;;;;;0.93;0.93;;;20.00;99.90;;;;;;5131353;27;21177;-72
2023/08/03 11:22:12;;;;;;;2.33;0.83;;;20.00;99.90;;;;;;5125432;27;20541;-72
2023/08/03 11:24:39;;;;;;;1.40;1.20;;;20.00;99.90;;;;;;5131701;27;20555;-72
2023/08/03 11:27:07;;;;;;;1.80;0.83;;;19.90;99.90;;;;;;5123378;27;20455;-74
2023/08/03 11:29:36;;;;;;;4.47;0.90;;;19.90;99.90;;;;;;5127071;27;20453;-72
2023/08/03 11:32:05;;;;;;;3.67;1.10;;;20.00;99.90;;;;;;5127435;27;20454;-73
2023/08/03 11:34:33;;;;;;;2.00;1.00;;;20.00;99.90;;;;;;5124480;27;20466;-72
2023/08/03 11:36:59;;;;;;;1.80;1.30;;;19.90;99.90;;;;;;5128669;27;20495;-73
2023/08/03 11:39:26;;;;;;;1.60;1.00;;;19.90;99.90;;;;;;5130930;27;20444;-74
2023/08/03 11:41:56;;;;;;;1.33;1.10;;;20.00;99.90;;;;;;5130590;27;20459;-74
2023/08/03 11:44:24;;;;;;;0.90;0.90;;;20.00;99.90;;;;;;5129411;27;20476;-73
2023/08/03 11:47:04;;;;;;;1.67;1.03;;;20.00;99.90;;;;;;5127206;27;20506;-74
2023/08/03 11:49:31;;;;;;;1.30;0.90;;;20.10;99.90;;;;;;5129057;27;20444;-74
2023/08/03 11:52:00;;;;;;;0.67;0.67;;;20.20;99.90;;;;;;5133638;27;20522;-73
2023/08/03 11:54:29;;;;;;;2.20;0.80;;;20.20;99.90;;;;;;5126314;27;20467;-74
2023/08/03 11:58:07;;;;;;;1.03;0.83;;;20.20;99.90;;;;;;5127359;27;20536;-73
2023/08/03 11:59:47;;;;;;;1.70;0.93;;;20.30;99.90;;;;;;5126458;27;20431;-73
2023/08/03 12:02:16;;;;;;;2.03;0.90;;;20.30;99.90;;;;;;5123306;27;20460;-74
2023/08/03 12:04:43;;;;;;;1.20;0.70;;;20.30;99.90;;;;;;5132285;27;20466;-73
2023/08/03 12:07:10;;;;;;;1.63;0.97;;;20.40;99.90;;;;;;5120808;27;20449;-74
2023/08/03 12:09:39;;;;;;;1.37;0.90;;;20.40;99.90;;;;;;5112321;27;20453;-74
2023/08/03 12:12:07;;;;;;;0.90;0.90;;;20.30;99.90;;;;;;5111846;27;20445;-74
2023/08/03 12:14:34;;;;;;;1.10;1.00;;;20.20;99.90;;;;;;5112953;27;20550;-73
2023/08/03 12:17:01;;;;;;;0.73;0.73;;;20.30;99.90;;;;;;5109119;28;20485;-74
2023/08/03 12:19:32;;;;;;;1.60;0.83;;;20.20;99.90;;;;;;5113272;27;20468;-73
2023/08/03 12:22:00;;;;;;;2.63;0.70;;;20.20;99.90;;;;;;5111104;27;20497;-72
2023/08/03 12:24:27;;;;;;;0.97;0.80;;;20.30;99.90;;;;;;5119168;27;20549;-72
2023/08/03 12:26:54;;;;;;;2.30;0.80;;;20.30;99.90;;;;;;5109123;27;20520;-74
2023/08/03 12:29:21;;;;;;;0.80;0.80;;;20.30;99.90;;;;;;5110024;27;20861;-74
2023/08/03 12:31:48;;;;;;;2.33;0.90;;;20.40;99.90;;;;;;5110376;27;20449;-71
2023/08/03 12:34:15;;;;;;;3.17;1.10;;;20.50;99.90;;;;;;5112141;27;20484;-71
2023/08/03 12:36:43;;;;;;;1.87;1.30;;;20.50;99.90;;;;;;5113448;27;20494;-72
2023/08/03 12:39:10;;;;;;;1.73;0.80;;;20.50;99.90;;;;;;5109845;28;20949;-71
2023/08/03 12:41:37;;;;;;;2.70;1.27;;;20.40;99.90;;;;;;5109799;28;20449;-72
2023/08/03 12:44:04;;;;;;;1.63;0.90;;;20.30;99.90;;;;;;5110049;28;20538;-71
2023/08/03 12:46:31;;;;;;;1.33;1.23;;;20.30;99.90;;;;;;5109369;28;20445;-72
2023/08/03 12:48:59;;;;;;;1.00;0.60;;;20.10;99.90;;;;;;5093446;28;21101;-71